Midelt, Morocco
Current Conditions -  °F | °C
As of 12:00 AM on Sunday 26 Oct 2014 (Local Time) from GMFK Reporting Station
Scattered Clouds Scattered Clouds  
Wind Chill: 72°   Ceiling: Unl
Heat Index: 72°   Visibility: 6mi
Dew Point: 37°   Wind: 2mph
Humidity: 29%   Direction: 300°WNW
Pressure: 30.21"   Gusts: NA
Location:  32.7°N, 4.74°W
Report Text: GMFK 252300Z 30002KT 9999 SCT026 22/03 Q1023 NOSIG
Loading
Personal Weather Stations






























Interactive Weather Map
Tropical Storm Tracking
New forecast layout! Learn more

10-Day Weather Forecast

Advertisements
Track Severe Weather on mobile